Time;durP1;ratioP1;P1;durP2;ratioP2;P2;SDS_P1;SDS_P2;PMS_P1;PMS_P2;Temp;Humidity;BMP_temperature;BMP_pressure;BME280_temperature;BME280_humidity;BME280_pressure;Samples;Min_cycle;Max_cycle;Signal;HPM_P1;HPM_P2
2022/05/20 00:00:53;;;;;;;29.80;21.90;;;;;;;18.60;100.00;101154.72;8293606;28;20391;-62
2022/05/20 00:04:53;;;;;;;33.65;21.33;;;;;;;18.63;100.00;101163.41;8307805;28;20074;-62
2022/05/20 00:08:54;;;;;;;34.97;20.70;;;;;;;18.55;100.00;101158.00;8325628;28;20038;-62
2022/05/20 00:12:55;;;;;;;38.17;21.58;;;;;;;18.45;100.00;101156.47;8314882;28;20041;-62
2022/05/20 00:16:55;;;;;;;32.30;20.90;;;;;;;18.52;100.00;101158.34;8290982;28;20249;-62
2022/05/20 00:20:59;;;;;;;37.30;21.75;;;;;;;18.66;100.00;101159.50;8292485;28;20048;-62
2022/05/20 00:25:59;;;;;;;28.85;20.23;;;;;;;18.43;100.00;101164.00;8325306;28;20730;-62
2022/05/20 00:29:19;;;;;;;31.00;20.38;;;;;;;18.65;100.00;101164.09;8323040;28;20037;-62
2022/05/20 00:33:20;;;;;;;31.40;19.55;;;;;;;18.67;100.00;101170.25;8311380;28;20054;-62
2022/05/20 00:37:21;;;;;;;28.40;18.50;;;;;;;18.60;100.00;101161.03;8274813;28;20042;-62
2022/05/20 00:41:21;;;;;;;27.25;19.55;;;;;;;18.53;100.00;101149.09;8267719;28;20050;-62
2022/05/20 00:45:22;;;;;;;35.72;19.45;;;;;;;18.56;100.00;101158.81;8291435;28;20124;-62
2022/05/20 00:49:22;;;;;;;34.17;21.17;;;;;;;18.63;100.00;101155.19;8291903;28;20068;-62
2022/05/20 00:53:26;;;;;;;28.15;19.77;;;;;;;18.57;100.00;101158.66;8307657;28;20284;-62
2022/05/20 00:57:32;;;;;;;31.50;20.88;;;;;;;18.39;100.00;101147.06;8291849;28;20046;-62
2022/05/20 01:01:34;;;;;;;35.47;22.42;;;;;;;18.35;100.00;101132.00;8289745;28;20049;-62
2022/05/20 01:05:39;;;;;;;33.90;21.98;;;;;;;18.31;100.00;101127.91;8313148;28;20167;-62
2022/05/20 01:09:40;;;;;;;34.20;22.17;;;;;;;18.37;100.00;101131.84;8313459;28;20030;-62
2022/05/20 01:13:40;;;;;;;33.57;22.90;;;;;;;18.38;100.00;101122.59;8293119;28;20113;-62
2022/05/20 01:17:41;;;;;;;39.67;24.00;;;;;;;18.46;100.00;101141.75;8292591;28;20610;-62
2022/05/20 01:21:42;;;;;;;40.03;21.58;;;;;;;18.26;100.00;101126.69;8293901;28;20401;-62
2022/05/20 01:25:47;;;;;;;39.83;23.37;;;;;;;18.21;100.00;101124.47;8282189;28;20073;-62
2022/05/20 01:29:48;;;;;;;39.65;23.70;;;;;;;18.15;100.00;101127.09;8262806;28;20280;-61
2022/05/20 01:33:51;;;;;;;39.92;23.27;;;;;;;18.10;100.00;101130.34;8292119;28;20482;-60
2022/05/20 01:37:51;;;;;;;37.65;23.02;;;;;;;18.18;100.00;101104.84;8327158;28;20068;-60
2022/05/20 01:42:01;;;;;;;34.47;22.73;;;;;;;18.11;100.00;101099.19;8327636;28;20034;-60
2022/05/20 01:46:29;;;;;;;38.60;23.67;;;;;;;18.13;100.00;101108.09;8326317;28;20517;-60
2022/05/20 01:50:36;;;;;;;37.80;24.50;;;;;;;18.07;100.00;101097.00;8304790;28;20072;-61
2022/05/20 01:55:05;;;;;;;38.45;25.08;;;;;;;18.00;100.00;101101.47;8294598;28;20045;-61
2022/05/20 01:59:14;;;;;;;47.58;28.35;;;;;;;17.94;100.00;101100.28;8293802;28;20567;-61
2022/05/20 02:03:21;;;;;;;39.72;26.25;;;;;;;17.96;100.00;101105.59;8296794;28;20045;-61
2022/05/20 02:07:27;;;;;;;44.10;26.33;;;;;;;18.09;100.00;101103.16;8326552;28;20034;-61
2022/05/20 02:11:40;;;;;;;47.58;26.73;;;;;;;18.08;100.00;101093.25;8326535;28;20406;-61
2022/05/20 02:20:06;;;;;;;47.08;27.63;;;;;;;17.90;100.00;101089.84;8355821;27;20388;-60
2022/05/20 02:24:11;;;;;;;51.03;28.55;;;;;;;17.97;100.00;101078.03;8327064;28;20567;-60
2022/05/20 02:28:18;;;;;;;48.65;29.00;;;;;;;18.02;100.00;101089.28;8320811;28;20474;-61
2022/05/20 02:32:29;;;;;;;45.92;27.95;;;;;;;17.93;100.00;101084.03;8320745;28;20038;-61
2022/05/20 02:36:33;;;;;;;52.33;29.70;;;;;;;17.62;100.00;101074.84;8321191;28;20530;-61
2022/05/20 02:40:34;;;;;;;52.07;29.50;;;;;;;17.71;100.00;101068.34;8320768;28;20042;-61
2022/05/20 02:44:34;;;;;;;52.33;32.15;;;;;;;17.55;100.00;101091.09;8320191;28;20283;-61
2022/05/20 02:48:36;;;;;;;55.78;34.13;;;;;;;17.58;100.00;101075.19;8318813;28;20053;-61
2022/05/20 02:52:37;;;;;;;56.75;35.05;;;;;;;17.57;100.00;101078.09;8335324;28;20037;-61
2022/05/20 02:56:38;;;;;;;62.63;33.83;;;;;;;17.61;100.00;101093.13;8320271;28;20046;-61
2022/05/20 03:04:59;;;;;;;68.03;41.92;;;;;;;17.68;100.00;101079.63;8298803;28;20053;-61
2022/05/20 03:09:00;;;;;;;74.55;45.47;;;;;;;17.66;100.00;101093.47;8307405;28;20043;-61
2022/05/20 03:13:02;;;;;;;73.93;44.23;;;;;;;17.60;100.00;101083.22;8313231;28;20057;-62
2022/05/20 03:17:03;;;;;;;72.93;43.83;;;;;;;17.54;100.00;101090.22;8295936;28;20309;-62
2022/05/20 03:21:03;;;;;;;77.10;44.53;;;;;;;17.53;100.00;101082.19;8324800;28;20091;-62
2022/05/20 03:25:05;;;;;;;71.43;42.30;;;;;;;17.58;100.00;101085.28;8350459;28;20029;-62
2022/05/20 03:29:05;;;;;;;68.97;41.80;;;;;;;17.67;100.00;101070.56;8340281;28;20280;-62
2022/05/20 03:33:06;;;;;;;70.85;42.20;;;;;;;17.73;100.00;101075.34;8327160;28;20053;-62
2022/05/20 03:37:06;;;;;;;70.78;42.97;;;;;;;17.62;100.00;101059.28;8296007;28;20490;-62
2022/05/20 03:41:07;;;;;;;77.95;42.50;;;;;;;17.58;100.00;101052.47;8295628;28;20038;-62
2022/05/20 03:45:09;;;;;;;69.18;40.80;;;;;;;17.64;100.00;101049.03;8295710;28;20058;-62
2022/05/20 03:49:12;;;;;;;72.43;44.33;;;;;;;17.82;100.00;101059.75;8293752;28;20081;-62
2022/05/20 03:53:12;;;;;;;77.18;42.75;;;;;;;17.68;100.00;101058.59;8274067;28;20061;-62
2022/05/20 03:57:13;;;;;;;73.35;42.67;;;;;;;17.72;100.00;101070.91;8271596;28;20099;-62
2022/05/20 04:02:14;;;;;;;70.63;41.25;;;;;;;17.88;100.00;101065.41;8262479;28;20093;-62
2022/05/20 04:05:34;;;;;;;77.07;42.85;;;;;;;17.79;100.00;101060.97;8283822;28;20129;-61
2022/05/20 04:09:34;;;;;;;73.80;43.23;;;;;;;17.76;100.00;101069.53;8293846;28;20494;-61
2022/05/20 04:13:35;;;;;;;72.22;42.03;;;;;;;17.73;100.00;101078.09;8309328;28;20364;-62
2022/05/20 04:17:35;;;;;;;76.38;42.83;;;;;;;17.78;100.00;101061.97;8294199;28;20080;-62
2022/05/20 04:21:36;;;;;;;73.57;42.38;;;;;;;17.76;100.00;101066.78;8319495;28;20038;-62
2022/05/20 04:25:37;;;;;;;67.97;39.53;;;;;;;17.79;100.00;101066.44;8298107;28;20324;-61
2022/05/20 04:29:37;;;;;;;65.85;40.72;;;;;;;17.79;100.00;101071.06;8278618;28;20050;-61
2022/05/20 04:33:38;;;;;;;70.65;41.70;;;;;;;17.86;100.00;101067.44;8264001;28;20069;-61
2022/05/20 04:37:39;;;;;;;75.82;42.83;;;;;;;17.77;100.00;101063.03;8289982;28;20122;-61
2022/05/20 04:47:02;;;;;;;76.13;42.42;;;;;;;17.85;100.00;101065.75;8282565;28;20782;-61
2022/05/20 04:50:21;;;;;;;73.88;41.10;;;;;;;17.84;100.00;101058.56;8297883;28;20103;-61
2022/05/20 04:54:53;;;;;;;73.72;42.03;;;;;;;17.87;100.00;101060.09;8285652;28;20124;-62
2022/05/20 04:58:42;;;;;;;72.38;40.58;;;;;;;17.90;100.00;101044.19;8275549;28;20068;-62
2022/05/20 05:02:43;;;;;;;76.10;41.60;;;;;;;18.11;100.00;101049.94;8280232;28;20073;-62
2022/05/20 05:06:44;;;;;;;71.90;40.60;;;;;;;18.10;100.00;101042.78;8284751;28;20100;-62
2022/05/20 05:10:44;;;;;;;70.20;40.60;;;;;;;18.02;100.00;101037.31;8256854;28;20042;-62
2022/05/20 05:14:48;;;;;;;69.20;38.65;;;;;;;18.10;100.00;101031.81;8268198;28;20048;-62
2022/05/20 05:18:48;;;;;;;73.47;41.33;;;;;;;18.11;100.00;101030.78;8273300;28;20061;-62
2022/05/20 05:22:50;;;;;;;73.55;42.05;;;;;;;18.14;100.00;101033.16;8298616;28;20042;-62
2022/05/20 05:26:51;;;;;;;74.18;43.00;;;;;;;18.18;100.00;101029.06;8283450;28;20030;-62
2022/05/20 05:30:52;;;;;;;77.75;44.80;;;;;;;18.21;100.00;101022.38;8268710;28;20041;-62
2022/05/20 05:34:52;;;;;;;79.90;45.15;;;;;;;18.36;100.00;101018.69;8274309;28;20037;-62
2022/05/20 05:38:52;;;;;;;76.90;44.37;;;;;;;18.44;100.00;101018.69;8260649;28;20046;-62
2022/05/20 05:42:55;;;;;;;76.68;42.50;;;;;;;18.60;100.00;101017.78;8255724;28;20285;-62
2022/05/20 05:46:55;;;;;;;82.53;43.58;;;;;;;18.76;100.00;101018.50;8273427;28;20038;-63
2022/05/20 05:50:56;;;;;;;79.32;45.05;;;;;;;18.77;100.00;101008.41;8283996;28;20034;-62
2022/05/20 05:54:56;;;;;;;71.22;41.40;;;;;;;19.01;100.00;101020.06;8301388;28;20543;-62
2022/05/20 05:58:57;;;;;;;78.00;42.42;;;;;;;19.36;100.00;101027.66;8281868;28;20042;-62
2022/05/20 06:02:57;;;;;;;73.03;41.33;;;;;;;19.33;99.16;101017.06;8285397;28;20052;-62
2022/05/20 06:06:58;;;;;;;67.85;41.45;;;;;;;19.48;99.18;101012.47;8286119;28;20042;-62
2022/05/20 06:10:59;;;;;;;69.72;42.17;;;;;;;19.22;99.91;101009.25;8287298;28;20030;-62
2022/05/20 06:15:06;;;;;;;80.07;40.22;;;;;;;19.26;99.69;101015.22;8283401;28;20054;-62
2022/05/20 06:19:06;;;;;;;74.10;40.38;;;;;;;19.39;100.00;101016.34;8292129;28;20060;-62
2022/05/20 06:23:07;;;;;;;66.93;38.83;;;;;;;19.56;99.42;101010.69;8321639;28;20033;-62
2022/05/20 06:27:09;;;;;;;67.77;39.23;;;;;;;19.68;98.71;100992.72;8307170;28;20046;-61
2022/05/20 06:31:11;;;;;;;67.45;37.28;;;;;;;19.95;97.35;100989.34;8286586;28;20291;-61
2022/05/20 06:40:03;;;;;;;67.75;39.30;;;;;;;19.60;100.00;100979.13;8269460;28;20088;-61
2022/05/20 06:43:52;;;;;;;67.75;40.80;;;;;;;19.32;100.00;100996.19;8270540;28;20073;-61
2022/05/20 06:47:52;;;;;;;73.63;40.72;;;;;;;19.33;100.00;100991.53;8286467;28;20042;-62
2022/05/20 06:51:55;;;;;;;76.22;44.35;;;;;;;19.44;100.00;100997.44;8287664;28;20074;-61
2022/05/20 06:55:55;;;;;;;76.28;44.15;;;;;;;19.55;100.00;100981.56;8286849;28;20041;-62
2022/05/20 06:59:56;;;;;;;75.30;48.17;;;;;;;19.29;100.00;100971.88;8286431;28;20439;-63
2022/05/20 07:03:57;;;;;;;73.60;45.42;;;;;;;19.36;100.00;100972.81;8287371;28;20281;-62
2022/05/20 07:07:57;;;;;;;75.93;45.88;;;;;;;19.32;100.00;100954.19;8292280;28;20502;-62
2022/05/20 07:11:58;;;;;;;77.87;48.07;;;;;;;19.51;100.00;100948.16;8291525;28;20367;-62
2022/05/20 07:15:59;;;;;;;73.30;44.05;;;;;;;19.91;100.00;100933.13;8290069;28;20299;-62
2022/05/20 07:19:59;;;;;;;73.15;46.78;;;;;;;20.08;100.00;100934.63;8290983;28;20500;-62
2022/05/20 07:24:01;;;;;;;83.18;47.08;;;;;;;20.25;100.00;100936.97;8291230;28;20038;-62
2022/05/20 07:28:02;;;;;;;83.28;48.22;;;;;;;20.62;99.42;100916.69;8293569;28;20388;-63
2022/05/20 07:32:02;;;;;;;90.95;48.88;;;;;;;20.50;100.00;100929.25;8291007;28;20113;-63
2022/05/20 07:36:05;;;;;;;77.75;45.65;;;;;;;20.50;99.20;100912.75;8292977;28;20037;-62
2022/05/20 07:40:06;;;;;;;74.35;44.92;;;;;;;20.47;100.00;100913.16;8293612;28;20478;-62
2022/05/20 07:44:06;;;;;;;82.50;44.70;;;;;;;20.80;100.00;100909.69;8293355;28;20432;-62
2022/05/20 07:48:07;;;;;;;73.93;44.95;;;;;;;20.76;99.29;100902.03;8292973;28;20097;-62
2022/05/20 07:52:12;;;;;;;77.50;44.92;;;;;;;20.83;98.85;100906.53;8322174;28;20095;-62
2022/05/20 07:56:17;;;;;;;80.35;45.47;;;;;;;20.97;99.60;100915.78;8325261;28;20421;-62
2022/05/20 08:00:19;;;;;;;83.82;46.83;;;;;;;20.97;97.96;100915.78;8325723;28;20087;-62
2022/05/20 08:05:24;;;;;;;79.47;47.85;;;;;;;20.69;99.90;100929.47;8314189;28;20122;-62
2022/05/20 08:08:44;;;;;;;84.30;49.90;;;;;;;20.82;100.00;100912.22;8292733;28;20040;-63
2022/05/20 08:12:45;;;;;;;77.68;49.97;;;;;;;20.82;100.00;100914.97;8292820;28;20113;-62
2022/05/20 08:16:46;;;;;;;82.38;48.90;;;;;;;20.82;100.00;100890.25;8292755;28;20120;-63
2022/05/20 08:20:46;;;;;;;80.15;49.45;;;;;;;20.71;100.00;100877.06;8309981;28;20029;-63
2022/05/20 08:24:46;;;;;;;78.55;47.00;;;;;;;20.89;100.00;100875.50;8325304;28;20328;-63
2022/05/20 08:28:48;;;;;;;74.60;44.83;;;;;;;21.69;97.64;100875.91;8325045;28;20045;-62
2022/05/20 08:32:48;;;;;;;70.85;42.70;;;;;;;21.63;95.83;100871.22;8325467;28;20268;-63
2022/05/20 08:36:49;;;;;;;76.80;44.45;;;;;;;21.32;97.14;100870.81;8293155;28;20045;-62
2022/05/20 08:40:49;;;;;;;65.03;40.17;;;;;;;21.48;96.06;100859.50;8292138;28;20065;-63
2022/05/20 08:44:50;;;;;;;71.47;42.88;;;;;;;21.28;97.74;100859.34;8292905;28;20033;-63
2022/05/20 08:48:53;;;;;;;68.32;38.92;;;;;;;21.57;97.18;100863.78;8291734;28;20100;-62
2022/05/20 08:52:55;;;;;;;66.70;40.53;;;;;;;21.66;97.15;100857.06;8288540;28;20085;-62
2022/05/20 08:56:56;;;;;;;62.50;37.70;;;;;;;22.15;97.04;100832.94;8292676;28;20134;-63
2022/05/20 09:00:56;;;;;;;62.50;35.38;;;;;;;22.86;91.17;100834.09;8291068;28;20037;-62
2022/05/20 09:04:58;;;;;;;60.65;35.92;;;;;;;22.96;88.88;100832.59;8307785;28;20520;-63
2022/05/20 09:09:05;;;;;;;59.90;36.45;;;;;;;22.91;90.93;100826.88;8290938;28;20029;-63
2022/05/20 09:13:12;;;;;;;61.28;37.05;;;;;;;23.35;88.53;100817.06;8287756;28;20041;-63
2022/05/20 09:17:18;;;;;;;52.47;34.08;;;;;;;23.43;87.71;100803.91;8289171;28;20037;-63
2022/05/20 09:21:38;;;;;;;53.53;34.22;;;;;;;23.14;89.54;100793.31;8301155;28;20041;-63
2022/05/20 09:25:46;;;;;;;56.35;35.42;;;;;;;23.50;88.16;100781.78;8263981;28;20041;-63
2022/05/20 09:29:56;;;;;;;45.97;31.95;;;;;;;23.83;87.16;100768.69;8287757;28;20037;-63
2022/05/20 09:34:27;;;;;;;50.60;33.47;;;;;;;23.98;86.14;100769.28;8286688;28;20042;-63
2022/05/20 09:38:41;;;;;;;47.72;30.77;;;;;;;24.06;85.79;100752.47;8314546;28;20893;-62
2022/05/20 09:43:00;;;;;;;43.15;28.27;;;;;;;24.29;84.65;100761.00;8316329;28;20088;-62
2022/05/20 09:47:12;;;;;;;41.13;27.27;;;;;;;24.46;83.30;100751.09;8316266;28;20045;-62
2022/05/20 09:51:19;;;;;;;43.53;29.52;;;;;;;25.43;80.95;100742.94;8316498;28;20040;-62
2022/05/20 09:55:31;;;;;;;36.75;23.20;;;;;;;26.33;77.60;100723.34;8301854;28;20045;-62
2022/05/20 09:59:58;;;;;;;30.30;21.10;;;;;;;27.30;73.33;100719.91;8301551;28;20056;-62
2022/05/20 10:04:03;;;;;;;33.20;21.92;;;;;;;27.76;70.44;100714.22;8294077;28;20116;-62
2022/05/20 10:08:11;;;;;;;31.35;21.25;;;;;;;28.92;68.07;100706.88;8296315;28;20447;-62
2022/05/20 10:12:27;;;;;;;25.10;17.88;;;;;;;29.37;65.91;100704.75;8286247;28;20029;-61
2022/05/20 10:16:45;;;;;;;25.45;19.25;;;;;;;28.97;67.22;100689.41;8308847;28;20047;-61
2022/05/20 10:21:23;;;;;;;29.30;21.40;;;;;;;28.83;67.70;100658.28;8311619;28;20065;-61
2022/05/20 10:25:41;;;;;;;32.13;20.80;;;;;;;29.76;66.59;100645.03;8305102;28;20112;-61
2022/05/20 10:34:14;;;;;;;24.27;17.17;;;;;;;29.53;65.11;100622.19;8311684;28;20379;-62
2022/05/20 10:43:13;;;;;;;17.88;13.63;;;;;;;27.62;71.31;100610.00;8405142;27;20432;-61
2022/05/20 10:48:43;;;;;;;20.08;13.70;;;;;;;26.08;76.04;100609.88;8387763;27;20598;-61
2022/05/20 10:52:31;;;;;;;17.20;13.93;;;;;;;25.63;79.35;100611.44;8368699;28;20488;-61
2022/05/20 11:00:50;;;;;;;22.02;15.13;;;;;;;25.74;80.09;100590.38;8406480;27;20352;-62
2022/05/20 11:04:55;;;;;;;;;;;;;;;25.87;78.83;100577.16;8397752;28;20033;-62
2022/05/20 11:13:36;;;;;;;21.90;14.43;;;;;;;25.53;80.34;100558.56;8356944;27;21002;-62
2022/05/20 11:18:04;;;;;;;19.13;14.63;;;;;;;25.38;82.06;100524.91;8347717;28;20280;-63
2022/05/20 11:26:58;;;;;;;19.20;13.40;;;;;;;25.51;82.48;100485.94;8320625;28;20446;-61
2022/05/20 11:35:44;;;;;;;17.88;12.18;;;;;;;28.63;71.63;100460.38;8408973;27;20364;-62
2022/05/20 11:44:35;;;;;;;13.75;11.80;;;;;;;26.95;77.32;100399.91;8417317;27;20975;-62
2022/05/20 11:49:02;;;;;;;17.08;12.70;;;;;;;26.03;80.83;100329.84;8382034;28;20051;-62
2022/05/20 11:53:31;;;;;;;18.40;11.95;;;;;;;25.55;83.33;100332.06;8393011;28;20033;-63
2022/05/20 11:57:38;;;;;;;20.83;12.23;;;;;;;25.40;84.49;100377.94;8410730;28;20539;-62
2022/05/20 12:01:40;;;;;;;15.57;11.82;;;;;;;25.31;84.28;100424.47;8397110;28;20404;-63
2022/05/20 12:05:43;;;;;;;19.88;12.30;;;;;;;25.14;85.63;100417.94;8408923;28;20044;-62
2022/05/20 12:09:50;;;;;;;19.45;12.38;;;;;;;25.01;87.05;100441.13;8399608;28;20489;-62
2022/05/20 12:27:37;;;;;;;17.73;6.93;;;;;;;22.40;100.00;100398.69;8425117;27;20351;-62
2022/05/20 12:31:40;;;;;;;22.90;10.98;;;;;;;21.89;100.00;100410.75;8383118;28;20055;-63
2022/05/20 12:36:18;;;;;;;17.63;10.27;;;;;;;21.71;100.00;100447.16;8354358;28;20409;-63
2022/05/20 12:40:39;;;;;;;16.85;12.43;;;;;;;22.08;100.00;100465.75;8365646;28;20040;-62
2022/05/20 12:44:40;;;;;;;17.88;13.60;;;;;;;22.16;100.00;100457.25;8346218;28;20049;-63
2022/05/20 12:48:40;;;;;;;24.93;13.50;;;;;;;22.32;100.00;100456.78;8347424;28;20497;-63
2022/05/20 12:52:50;;;;;;;18.13;14.57;;;;;;;22.50;100.00;100454.19;8350915;28;20339;-63
2022/05/20 12:57:02;;;;;;;13.68;9.57;;;;;;;23.19;100.00;100456.94;8360748;28;20453;-64
2022/05/20 13:01:07;;;;;;;16.77;10.88;;;;;;;23.36;100.00;100396.56;8346000;28;20132;-64
2022/05/20 13:05:21;;;;;;;18.48;11.13;;;;;;;23.47;100.00;100390.28;8359827;28;20530;-64
2022/05/20 13:09:25;;;;;;;12.15;8.93;;;;;;;23.72;100.00;100391.13;8344773;28;20033;-64
2022/05/20 13:13:30;;;;;;;14.18;9.27;;;;;;;23.97;100.00;100367.06;8357536;28;20040;-64
2022/05/20 13:17:32;;;;;;;8.55;5.80;;;;;;;24.19;96.50;100355.31;8372250;28;20111;-64
2022/05/20 13:21:42;;;;;;;8.55;5.00;;;;;;;24.41;92.21;100350.09;8377686;28;20044;-63
2022/05/20 13:25:43;;;;;;;6.32;4.85;;;;;;;24.85;92.81;100330.31;8363416;28;20079;-63
2022/05/20 13:29:46;;;;;;;8.52;4.95;;;;;;;25.37;92.92;100317.53;8365706;28;20091;-63
2022/05/20 13:33:46;;;;;;;9.23;4.70;;;;;;;25.69;91.09;100316.03;8355633;28;20040;-63
2022/05/20 13:37:51;;;;;;;8.30;4.05;;;;;;;25.72;86.99;100327.47;8339443;28;20151;-63
2022/05/20 13:41:54;;;;;;;6.82;3.88;;;;;;;25.56;85.99;100347.63;8336414;28;20053;-63
2022/05/20 13:50:20;;;;;;;5.18;3.65;;;;;;;25.10;87.70;100385.47;8329358;28;20033;-63
2022/05/20 13:54:31;;;;;;;5.22;3.58;;;;;;;24.87;87.20;100377.94;8321623;28;20171;-63
2022/05/20 13:58:32;;;;;;;5.55;3.95;;;;;;;24.72;86.77;100374.78;8322200;28;20033;-63
2022/05/20 14:02:37;;;;;;;5.43;3.58;;;;;;;24.79;84.24;100386.56;8323692;28;20045;-63
2022/05/20 14:06:38;;;;;;;9.18;3.63;;;;;;;24.77;87.68;100383.22;8335624;28;20038;-63
2022/05/20 14:10:40;;;;;;;4.00;3.33;;;;;;;24.72;92.28;100383.91;8320626;28;20033;-63
2022/05/20 14:14:41;;;;;;;5.22;3.30;;;;;;;24.84;90.19;100372.88;8326655;28;20041;-63
2022/05/20 14:18:46;;;;;;;5.97;3.17;;;;;;;24.88;87.73;100393.44;8322123;28;20048;-63
2022/05/20 14:22:48;;;;;;;5.88;3.75;;;;;;;24.84;87.03;100389.47;8335945;28;20505;-64
2022/05/20 14:26:51;;;;;;;6.28;3.53;;;;;;;24.64;90.53;100378.72;8319186;28;20038;-63
2022/05/20 14:30:58;;;;;;;5.20;3.90;;;;;;;24.37;92.27;100382.88;8336003;28;20093;-63
2022/05/20 14:34:59;;;;;;;13.38;6.07;;;;;;;24.05;95.48;100380.53;8353331;28;20184;-63
2022/05/20 14:39:01;;;;;;;11.73;5.35;;;;;;;23.05;100.00;100406.53;8349893;28;20397;-62
2022/05/20 14:43:05;;;;;;;13.05;5.50;;;;;;;21.89;100.00;100410.75;8333929;28;20534;-62
2022/05/20 14:47:16;;;;;;;;;;;;;;;21.34;100.00;100343.31;8319512;28;20032;-62
2022/05/20 14:51:27;;;;;;;8.63;5.65;;;;;;;21.00;100.00;100382.03;8337609;28;19917;-62
2022/05/20 14:55:39;;;;;;;12.00;5.22;;;;;;;20.98;100.00;100375.94;8337927;28;20033;-62
2022/05/20 14:59:39;;;;;;;8.20;3.85;;;;;;;21.04;100.00;100369.56;8340563;28;20037;-62
2022/05/20 15:03:44;;;;;;;7.80;4.33;;;;;;;21.12;100.00;100355.59;8328071;28;20037;-62
2022/05/20 15:07:46;;;;;;;10.93;4.47;;;;;;;21.11;100.00;100362.19;8348435;28;20834;-62
2022/05/20 15:11:47;;;;;;;10.23;5.05;;;;;;;21.44;100.00;100356.63;8345909;28;20047;-62
2022/05/20 15:15:48;;;;;;;6.80;4.15;;;;;;;21.49;100.00;100337.56;8354954;28;20036;-62
2022/05/20 15:19:48;;;;;;;8.27;5.15;;;;;;;21.49;100.00;100343.91;8345567;28;20033;-62
2022/05/20 15:24:09;;;;;;;6.73;5.03;;;;;;;21.64;100.00;100319.75;8335950;28;20102;-62
2022/05/20 15:28:47;;;;;;;7.38;5.15;;;;;;;21.90;100.00;100307.81;8354335;28;20259;-62
2022/05/20 15:37:00;;;;;;;7.00;4.40;;;;;;;22.08;100.00;100344.56;8343654;28;20033;-62
2022/05/20 15:41:01;;;;;;;6.85;5.07;;;;;;;21.74;100.00;100375.19;8325691;28;20137;-63
2022/05/20 15:45:03;;;;;;;9.68;5.93;;;;;;;21.46;100.00;100388.34;8338311;28;20049;-62
2022/05/20 15:49:03;;;;;;;9.00;5.38;;;;;;;21.07;100.00;100415.88;8350367;28;20041;-62
2022/05/20 15:53:06;;;;;;;9.23;5.25;;;;;;;20.59;100.00;100400.56;8353980;28;20089;-60
2022/05/20 15:57:16;;;;;;;11.32;5.40;;;;;;;20.19;100.00;100385.03;8323131;28;20425;-62
2022/05/20 16:01:16;;;;;;;13.55;4.70;;;;;;;20.10;100.00;100399.94;8321064;28;20050;-62
2022/05/20 16:05:17;;;;;;;11.13;6.28;;;;;;;20.01;100.00;100423.13;8340906;28;20041;-63
2022/05/20 16:09:18;;;;;;;12.48;5.97;;;;;;;20.00;100.00;100415.97;8353796;28;20554;-62
2022/05/20 16:13:20;;;;;;;11.73;6.47;;;;;;;20.11;100.00;100393.41;8340733;28;20399;-62
2022/05/20 16:17:20;;;;;;;11.73;5.63;;;;;;;20.07;100.00;100405.84;8318767;28;20045;-62
2022/05/20 16:21:22;;;;;;;12.10;5.83;;;;;;;20.10;100.00;100403.53;8320406;28;20053;-62
2022/05/20 16:25:23;;;;;;;8.98;4.82;;;;;;;20.05;100.00;100399.72;8329650;28;20045;-62
2022/05/20 16:29:24;;;;;;;8.00;4.90;;;;;;;19.97;100.00;100411.69;8326382;28;20033;-62
2022/05/20 16:33:24;;;;;;;8.47;4.73;;;;;;;19.95;100.00;100424.81;8331746;28;20037;-62
2022/05/20 16:37:24;;;;;;;9.63;4.80;;;;;;;19.96;100.00;100418.25;8345257;28;20783;-62
2022/05/20 16:41:25;;;;;;;6.82;5.03;;;;;;;20.07;100.00;100427.81;8350798;28;20052;-62
2022/05/20 16:45:26;;;;;;;5.70;5.07;;;;;;;20.06;100.00;100429.69;8344939;28;20545;-62
2022/05/20 16:49:29;;;;;;;4.20;3.42;;;;;;;20.13;100.00;100432.53;8341461;28;20041;-62
2022/05/20 16:53:30;;;;;;;5.72;2.60;;;;;;;20.36;100.00;100444.00;8344281;28;20088;-62
2022/05/20 17:01:54;;;;;;;5.40;3.05;;;;;;;20.77;100.00;100458.53;8347739;28;20277;-62
2022/05/20 17:05:55;;;;;;;5.28;3.17;;;;;;;20.74;100.00;100450.69;8337391;28;20040;-62
2022/05/20 17:09:55;;;;;;;6.47;3.33;;;;;;;20.57;100.00;100454.88;8336850;28;20072;-62
2022/05/20 17:13:57;;;;;;;8.35;4.10;;;;;;;20.52;100.00;100462.91;8351666;28;20279;-62
2022/05/20 17:17:57;;;;;;;5.25;4.75;;;;;;;20.90;100.00;100453.06;8344205;28;20060;-61
2022/05/20 17:26:18;;;;;;;5.35;4.60;;;;;;;20.76;100.00;100467.81;8355808;28;20045;-62
2022/05/20 17:30:19;;;;;;;6.22;5.63;;;;;;;20.36;100.00;100501.69;8346672;28;20111;-62
2022/05/20 17:34:20;;;;;;;9.00;7.32;;;;;;;20.14;100.00;100522.06;8346999;28;20045;-62
2022/05/20 17:38:21;;;;;;;10.40;8.33;;;;;;;19.72;100.00;100530.38;8339266;28;20102;-63
2022/05/20 17:42:24;;;;;;;9.52;8.57;;;;;;;19.38;100.00;100537.50;8327597;28;20858;-63
2022/05/20 17:46:24;;;;;;;10.60;9.45;;;;;;;19.30;98.65;100540.34;8324035;28;20144;-62
2022/05/20 17:50:25;;;;;;;9.93;8.30;;;;;;;18.98;97.70;100556.41;8331620;28;20509;-63
2022/05/20 17:54:26;;;;;;;9.25;8.38;;;;;;;18.81;97.78;100566.75;8361990;28;20115;-63
2022/05/20 17:58:26;;;;;;;10.10;9.13;;;;;;;18.78;98.84;100579.97;8332920;28;20294;-63
2022/05/20 18:02:28;;;;;;;10.67;9.57;;;;;;;18.53;97.33;100600.50;8340254;28;20059;-63
2022/05/20 18:06:28;;;;;;;12.07;10.88;;;;;;;18.44;99.22;100618.06;8347545;28;20714;-63
2022/05/20 18:10:29;;;;;;;13.32;9.95;;;;;;;18.26;100.00;100634.84;8329929;28;20307;-63
2022/05/20 18:14:31;;;;;;;10.82;9.73;;;;;;;18.13;97.27;100651.06;8336230;28;20450;-63
2022/05/20 18:18:33;;;;;;;12.05;10.75;;;;;;;18.03;96.61;100664.16;8324866;28;20064;-63
2022/05/20 18:22:35;;;;;;;13.93;12.35;;;;;;;17.87;96.83;100658.81;8329600;28;20045;-63
2022/05/20 18:26:36;;;;;;;14.63;13.15;;;;;;;17.77;97.53;100674.63;8331025;28;20518;-63
2022/05/20 18:30:36;;;;;;;15.60;14.07;;;;;;;17.68;98.39;100692.13;8337474;28;20396;-63
2022/05/20 18:39:28;;;;;;;19.95;17.92;;;;;;;17.47;97.08;100711.06;8350074;28;20037;-63
2022/05/20 18:43:17;;;;;;;20.30;18.42;;;;;;;17.35;96.30;100717.94;8336243;28;20053;-63
2022/05/20 18:47:22;;;;;;;19.10;17.27;;;;;;;17.28;97.11;100722.41;8331250;28;20051;-63
2022/05/20 18:51:22;;;;;;;;;;;;;;;17.17;96.00;100736.50;8376602;28;20025;-63
2022/05/20 18:55:25;;;;;;;15.68;14.05;;;;;;;17.11;95.83;100723.53;8386582;28;19924;-63
2022/05/20 18:59:25;;;;;;;16.15;13.73;;;;;;;17.04;95.45;100733.44;8376101;28;20040;-63
2022/05/20 19:03:57;;;;;;;17.23;12.32;;;;;;;17.02;94.76;100735.53;8372731;28;20037;-63
2022/05/20 19:07:46;;;;;;;17.20;12.32;;;;;;;16.96;93.90;100755.34;8382188;28;20471;-63
2022/05/20 19:11:47;;;;;;;14.35;11.85;;;;;;;16.91;94.09;100763.22;8358818;28;20029;-63
2022/05/20 19:15:47;;;;;;;12.68;10.88;;;;;;;16.82;93.85;100767.00;8386087;28;20489;-63
2022/05/20 19:19:48;;;;;;;9.50;8.70;;;;;;;16.78;93.59;100773.84;8386062;28;20550;-63
2022/05/20 19:23:49;;;;;;;10.45;8.32;;;;;;;16.70;92.35;100782.91;8384391;28;20055;-63
2022/05/20 19:27:51;;;;;;;9.20;8.23;;;;;;;16.61;92.56;100793.97;8363179;28;20110;-63
2022/05/20 19:31:53;;;;;;;8.88;7.78;;;;;;;16.61;92.53;100793.97;8358552;28;20110;-63
2022/05/20 19:35:54;;;;;;;10.48;8.02;;;;;;;16.61;92.89;100816.69;8386376;28;20074;-63
2022/05/20 19:39:55;;;;;;;9.45;8.25;;;;;;;16.60;93.79;100819.59;8354321;28;20045;-63
2022/05/20 19:43:55;;;;;;;13.60;9.55;;;;;;;16.52;94.02;100825.91;8333830;28;20088;-63
2022/05/20 19:47:56;;;;;;;12.15;9.40;;;;;;;16.51;95.29;100834.25;8322460;28;20479;-63
2022/05/20 19:51:57;;;;;;;13.50;9.65;;;;;;;16.39;96.15;100849.25;8350171;28;20033;-63
2022/05/20 19:55:58;;;;;;;12.85;10.70;;;;;;;16.24;97.04;100861.84;8354915;28;20029;-63